sensor_id;sensor_type;location;lat;lon;timestamp;pressure;altitude;pressure_sealevel;temperature;humidity
64189;BME280;50493;50.970;10.082;2023-02-23T00:00:42;98915.78;;;8.52;74.37
64189;BME280;50493;50.970;10.082;2023-02-23T00:03:08;98905.34;;;8.52;73.99
64189;BME280;50493;50.970;10.082;2023-02-23T00:05:35;98915.03;;;8.45;74.22
64189;BME280;50493;50.970;10.082;2023-02-23T00:08:01;98913.53;;;8.35;74.60
64189;BME280;50493;50.970;10.082;2023-02-23T00:10:27;98909.31;;;8.28;74.81
64189;BME280;50493;50.970;10.082;2023-02-23T00:12:56;98909.34;;;8.26;74.99
64189;BME280;50493;50.970;10.082;2023-02-23T00:15:24;98913.72;;;8.26;74.77
64189;BME280;50493;50.970;10.082;2023-02-23T00:17:51;98904.94;;;8.30;74.39
64189;BME280;50493;50.970;10.082;2023-02-23T00:20:17;98909.50;;;8.19;75.06
64189;BME280;50493;50.970;10.082;2023-02-23T00:22:51;98914.91;;;8.08;75.25
64189;BME280;50493;50.970;10.082;2023-02-23T00:25:17;98907.28;;;7.97;75.89
64189;BME280;50493;50.970;10.082;2023-02-23T00:27:43;98903.75;;;8.01;75.50
64189;BME280;50493;50.970;10.082;2023-02-23T00:30:11;98906.41;;;7.98;75.52
64189;BME280;50493;50.970;10.082;2023-02-23T00:32:38;98909.03;;;7.98;75.46
64189;BME280;50493;50.970;10.082;2023-02-23T00:35:04;98912.50;;;7.97;75.00
64189;BME280;50493;50.970;10.082;2023-02-23T00:37:29;98912.56;;;7.94;75.62
64189;BME280;50493;50.970;10.082;2023-02-23T00:39:55;98902.22;;;7.91;75.44
64189;BME280;50493;50.970;10.082;2023-02-23T00:42:21;98904.13;;;7.83;75.78
64189;BME280;50493;50.970;10.082;2023-02-23T00:44:46;98907.66;;;7.78;75.70
64189;BME280;50493;50.970;10.082;2023-02-23T00:47:13;98906.84;;;7.75;75.58
64189;BME280;50493;50.970;10.082;2023-02-23T00:49:40;98909.53;;;7.70;75.95
64189;BME280;50493;50.970;10.082;2023-02-23T00:52:05;98905.13;;;7.74;75.70
64189;BME280;50493;50.970;10.082;2023-02-23T00:54:31;98914.69;;;7.73;75.60
64189;BME280;50493;50.970;10.082;2023-02-23T00:56:57;98909.53;;;7.70;75.50
64189;BME280;50493;50.970;10.082;2023-02-23T00:59:22;98914.88;;;7.63;76.03
64189;BME280;50493;50.970;10.082;2023-02-23T01:01:47;98914.16;;;7.53;75.84
64189;BME280;50493;50.970;10.082;2023-02-23T01:04:13;98911.44;;;7.59;75.40
64189;BME280;50493;50.970;10.082;2023-02-23T01:06:40;98911.59;;;7.50;76.27
64189;BME280;50493;50.970;10.082;2023-02-23T01:09:06;98911.63;;;7.48;75.90
64189;BME280;50493;50.970;10.082;2023-02-23T01:11:33;98916.78;;;7.53;75.76
64189;BME280;50493;50.970;10.082;2023-02-23T01:14:00;98916.81;;;7.50;75.76
64189;BME280;50493;50.970;10.082;2023-02-23T01:16:28;98909.13;;;7.43;75.60
64189;BME280;50493;50.970;10.082;2023-02-23T01:18:56;98911.88;;;7.31;76.67
64189;BME280;50493;50.970;10.082;2023-02-23T01:21:24;98915.28;;;7.36;75.80
64189;BME280;50493;50.970;10.082;2023-02-23T01:23:51;98913.69;;;7.26;76.42
64189;BME280;50493;50.970;10.082;2023-02-23T01:26:18;98918.78;;;7.32;75.79
64189;BME280;50493;50.970;10.082;2023-02-23T01:28:47;98917.78;;;7.44;75.25
64189;BME280;50493;50.970;10.082;2023-02-23T01:31:13;98911.84;;;7.34;75.66
64189;BME280;50493;50.970;10.082;2023-02-23T01:33:39;98905.94;;;7.24;76.34
64189;BME280;50493;50.970;10.082;2023-02-23T01:36:05;98912.69;;;7.36;75.58
64189;BME280;50493;50.970;10.082;2023-02-23T01:38:31;98911.50;;;7.56;74.18
64189;BME280;50493;50.970;10.082;2023-02-23T01:40:59;98911.50;;;7.56;74.20
64189;BME280;50493;50.970;10.082;2023-02-23T01:43:24;98913.25;;;7.55;73.83
64189;BME280;50493;50.970;10.082;2023-02-23T01:45:54;98909.00;;;7.50;74.19
64189;BME280;50493;50.970;10.082;2023-02-23T01:48:21;98915.91;;;7.52;74.06
64189;BME280;50493;50.970;10.082;2023-02-23T01:50:50;98917.00;;;7.37;74.66
64189;BME280;50493;50.970;10.082;2023-02-23T01:53:17;98911.81;;;7.37;74.80
64189;BME280;50493;50.970;10.082;2023-02-23T01:55:46;98918.44;;;7.57;73.23
64189;BME280;50493;50.970;10.082;2023-02-23T01:58:17;98920.63;;;7.27;75.24
64189;BME280;50493;50.970;10.082;2023-02-23T02:00:46;98916.34;;;7.23;75.47
64189;BME280;50493;50.970;10.082;2023-02-23T02:03:16;98920.63;;;7.27;75.46
64189;BME280;50493;50.970;10.082;2023-02-23T02:05:43;98915.44;;;7.27;74.88
64189;BME280;50493;50.970;10.082;2023-02-23T02:08:11;98912.88;;;7.22;75.29
64189;BME280;50493;50.970;10.082;2023-02-23T02:10:37;98918.91;;;7.26;75.22
64189;BME280;50493;50.970;10.082;2023-02-23T02:13:09;98903.25;;;7.29;74.83
64189;BME280;50493;50.970;10.082;2023-02-23T02:15:51;98905.44;;;7.57;72.72
64189;BME280;50493;50.970;10.082;2023-02-23T02:18:25;98902.06;;;7.50;73.06
64189;BME280;50493;50.970;10.082;2023-02-23T02:21:31;98902.34;;;7.32;74.00
64189;BME280;50493;50.970;10.082;2023-02-23T02:24:09;98907.72;;;7.21;74.82
64189;BME280;50493;50.970;10.082;2023-02-23T02:26:50;98893.00;;;7.20;74.75
64189;BME280;50493;50.970;10.082;2023-02-23T02:32:39;98900.72;;;7.24;74.38
64189;BME280;50493;50.970;10.082;2023-02-23T02:35:35;98903.44;;;7.17;74.24
64189;BME280;50493;50.970;10.082;2023-02-23T02:38:17;98895.72;;;7.10;74.86
64189;BME280;50493;50.970;10.082;2023-02-23T02:40:50;98894.13;;;7.03;75.11
64189;BME280;50493;50.970;10.082;2023-02-23T02:43:23;98899.38;;;6.99;74.81
64189;BME280;50493;50.970;10.082;2023-02-23T02:45:55;98898.53;;;6.97;74.83
64189;BME280;50493;50.970;10.082;2023-02-23T02:48:30;98889.06;;;6.92;74.92
64189;BME280;50493;50.970;10.082;2023-02-23T02:51:02;98886.34;;;7.02;74.63
64189;BME280;50493;50.970;10.082;2023-02-23T02:53:39;98886.38;;;6.97;74.99
64189;BME280;50493;50.970;10.082;2023-02-23T02:56:06;98888.28;;;6.87;74.94
64189;BME280;50493;50.970;10.082;2023-02-23T02:58:33;98888.22;;;6.92;74.55
64189;BME280;50493;50.970;10.082;2023-02-23T03:01:05;98888.16;;;6.97;74.82
64189;BME280;50493;50.970;10.082;2023-02-23T03:03:50;98879.13;;;7.21;73.47
64189;BME280;50493;50.970;10.082;2023-02-23T03:06:37;98880.00;;;7.18;73.44
64189;BME280;50493;50.970;10.082;2023-02-23T03:09:34;98878.38;;;7.13;73.37
64189;BME280;50493;50.970;10.082;2023-02-23T03:12:26;98888.13;;;6.98;74.27
64189;BME280;50493;50.970;10.082;2023-02-23T03:15:23;98871.53;;;7.07;73.65
64189;BME280;50493;50.970;10.082;2023-02-23T03:18:23;98870.91;;;6.91;74.42
64189;BME280;50493;50.970;10.082;2023-02-23T03:21:15;98870.00;;;6.93;74.04
64189;BME280;50493;50.970;10.082;2023-02-23T03:24:10;98875.25;;;6.89;73.99
64189;BME280;50493;50.970;10.082;2023-02-23T03:27:00;98874.31;;;6.93;73.94
64189;BME280;50493;50.970;10.082;2023-02-23T03:29:53;98879.69;;;6.84;74.63
64189;BME280;50493;50.970;10.082;2023-02-23T03:32:47;98881.34;;;6.88;74.07
64189;BME280;50493;50.970;10.082;2023-02-23T03:35:35;98886.56;;;6.88;73.91
64189;BME280;50493;50.970;10.082;2023-02-23T03:38:28;98881.81;;;7.13;72.81
64189;BME280;50493;50.970;10.082;2023-02-23T03:41:17;98885.31;;;7.14;72.50
64189;BME280;50493;50.970;10.082;2023-02-23T03:44:08;98886.13;;;7.16;72.44
64189;BME280;50493;50.970;10.082;2023-02-23T03:46:54;98891.78;;;7.42;72.52
64189;BME280;50493;50.970;10.082;2023-02-23T03:49:40;98894.38;;;7.44;70.46
64189;BME280;50493;50.970;10.082;2023-02-23T03:52:29;98893.03;;;7.17;71.83
64189;BME280;50493;50.970;10.082;2023-02-23T03:55:17;98893.09;;;7.14;72.15
64189;BME280;50493;50.970;10.082;2023-02-23T03:58:04;98895.78;;;7.07;72.21
64189;BME280;50493;50.970;10.082;2023-02-23T04:00:50;98895.81;;;7.06;72.47
64189;BME280;50493;50.970;10.082;2023-02-23T04:03:39;98893.25;;;7.04;72.40
64189;BME280;50493;50.970;10.082;2023-02-23T04:06:27;98890.28;;;7.27;71.30
64189;BME280;50493;50.970;10.082;2023-02-23T04:09:15;98896.28;;;7.31;71.18
64189;BME280;50493;50.970;10.082;2023-02-23T04:12:02;98885.91;;;7.28;71.33
64189;BME280;50493;50.970;10.082;2023-02-23T04:14:53;98894.63;;;7.27;70.97
64189;BME280;50493;50.970;10.082;2023-02-23T04:17:24;98888.53;;;7.28;70.75
64189;BME280;50493;50.970;10.082;2023-02-23T04:19:52;98889.28;;;7.36;70.87
64189;BME280;50493;50.970;10.082;2023-02-23T04:22:19;98891.03;;;7.34;70.96
64189;BME280;50493;50.970;10.082;2023-02-23T04:24:45;98894.47;;;7.36;70.65
64189;BME280;50493;50.970;10.082;2023-02-23T04:27:10;98891.03;;;7.34;70.37
64189;BME280;50493;50.970;10.082;2023-02-23T04:29:36;98890.16;;;7.37;70.33
64189;BME280;50493;50.970;10.082;2023-02-23T04:32:01;98894.31;;;7.49;69.71
64189;BME280;50493;50.970;10.082;2023-02-23T04:34:28;98894.75;;;7.72;68.55
64189;BME280;50493;50.970;10.082;2023-02-23T04:36:53;98894.00;;;8.12;69.33
64189;BME280;50493;50.970;10.082;2023-02-23T04:39:18;98905.91;;;7.79;68.12
64189;BME280;50493;50.970;10.082;2023-02-23T04:41:44;98905.81;;;7.85;68.22
64189;BME280;50493;50.970;10.082;2023-02-23T04:44:10;98896.94;;;7.94;64.27
64189;BME280;50493;50.970;10.082;2023-02-23T04:46:35;98903.94;;;7.92;64.48
64189;BME280;50493;50.970;10.082;2023-02-23T04:49:00;98902.91;;;8.01;65.85
64189;BME280;50493;50.970;10.082;2023-02-23T04:51:27;98907.81;;;7.69;67.60
64189;BME280;50493;50.970;10.082;2023-02-23T04:53:56;98906.25;;;7.59;68.66
64189;BME280;50493;50.970;10.082;2023-02-23T04:56:21;98908.69;;;7.68;67.26
64189;BME280;50493;50.970;10.082;2023-02-23T04:58:52;98910.97;;;7.87;66.39
64189;BME280;50493;50.970;10.082;2023-02-23T05:01:22;98909.34;;;7.79;67.21
64189;BME280;50493;50.970;10.082;2023-02-23T05:03:48;98911.44;;;7.59;68.21
64189;BME280;50493;50.970;10.082;2023-02-23T05:06:13;98912.47;;;7.50;68.75
64189;BME280;50493;50.970;10.082;2023-02-23T05:08:40;98912.16;;;7.67;68.25
64189;BME280;50493;50.970;10.082;2023-02-23T05:11:06;98914.69;;;7.73;67.71
64189;BME280;50493;50.970;10.082;2023-02-23T05:13:31;98910.66;;;7.54;68.42
64189;BME280;50493;50.970;10.082;2023-02-23T05:15:57;98907.31;;;7.47;69.31
64189;BME280;50493;50.970;10.082;2023-02-23T05:18:22;98914.16;;;7.53;68.84
64189;BME280;50493;50.970;10.082;2023-02-23T05:20:49;98915.69;;;7.65;68.25
64189;BME280;50493;50.970;10.082;2023-02-23T05:23:15;98914.16;;;7.51;67.97
64189;BME280;50493;50.970;10.082;2023-02-23T05:25:41;98903.31;;;7.26;69.71
64189;BME280;50493;50.970;10.082;2023-02-23T05:28:07;98905.78;;;7.35;68.80
64189;BME280;50493;50.970;10.082;2023-02-23T05:30:32;98904.72;;;7.45;68.31
64189;BME280;50493;50.970;10.082;2023-02-23T05:32:58;98905.59;;;7.48;68.92
64189;BME280;50493;50.970;10.082;2023-02-23T05:35:24;98904.78;;;7.42;69.17
64189;BME280;50493;50.970;10.082;2023-02-23T05:37:50;98906.59;;;7.37;69.10
64189;BME280;50493;50.970;10.082;2023-02-23T05:40:15;98913.19;;;7.60;68.44
64189;BME280;50493;50.970;10.082;2023-02-23T05:42:42;98906.03;;;7.71;67.52
64189;BME280;50493;50.970;10.082;2023-02-23T05:45:07;98908.09;;;7.52;68.10
64189;BME280;50493;50.970;10.082;2023-02-23T05:47:33;98904.88;;;7.36;69.39
64189;BME280;50493;50.970;10.082;2023-02-23T05:50:03;98908.94;;;7.54;68.58
64189;BME280;50493;50.970;10.082;2023-02-23T05:52:28;98914.66;;;7.75;67.22
64189;BME280;50493;50.970;10.082;2023-02-23T05:54:53;98909.56;;;7.67;67.51
64189;BME280;50493;50.970;10.082;2023-02-23T05:57:19;98911.38;;;7.62;68.12
64189;BME280;50493;50.970;10.082;2023-02-23T05:59:45;98917.53;;;7.59;68.03
64189;BME280;50493;50.970;10.082;2023-02-23T06:02:11;98918.31;;;7.63;67.76
64189;BME280;50493;50.970;10.082;2023-02-23T06:04:36;98922.56;;;7.69;67.63
64189;BME280;50493;50.970;10.082;2023-02-23T06:07:01;98920.47;;;7.88;66.46
64189;BME280;50493;50.970;10.082;2023-02-23T06:09:27;98923.06;;;7.89;66.42
64189;BME280;50493;50.970;10.082;2023-02-23T06:11:52;98929.22;;;7.84;66.47
64189;BME280;50493;50.970;10.082;2023-02-23T06:14:18;98920.47;;;7.89;66.59
64189;BME280;50493;50.970;10.082;2023-02-23T06:16:45;98924.56;;;8.01;65.87
64189;BME280;50493;50.970;10.082;2023-02-23T06:19:12;98924.53;;;8.04;65.58
64189;BME280;50493;50.970;10.082;2023-02-23T06:21:37;98917.94;;;8.32;67.03
64189;BME280;50493;50.970;10.082;2023-02-23T06:24:03;98922.53;;;8.62;65.15
64189;BME280;50493;50.970;10.082;2023-02-23T06:26:29;98928.25;;;8.78;64.66
64189;BME280;50493;50.970;10.082;2023-02-23T06:28:54;98922.44;;;8.66;61.88
64189;BME280;50493;50.970;10.082;2023-02-23T06:31:20;98930.41;;;8.58;61.85
64189;BME280;50493;50.970;10.082;2023-02-23T06:33:46;98930.50;;;8.09;64.17
64189;BME280;50493;50.970;10.082;2023-02-23T06:36:12;98937.78;;;7.90;66.30
64189;BME280;50493;50.970;10.082;2023-02-23T06:38:38;98930.28;;;7.73;66.73
64189;BME280;50493;50.970;10.082;2023-02-23T06:41:07;98933.13;;;7.59;67.70
64189;BME280;50493;50.970;10.082;2023-02-23T06:43:33;98939.47;;;7.41;68.40
64189;BME280;50493;50.970;10.082;2023-02-23T06:45:58;98936.75;;;7.49;68.09
64189;BME280;50493;50.970;10.082;2023-02-23T06:48:24;98939.28;;;7.54;67.58
64189;BME280;50493;50.970;10.082;2023-02-23T06:50:50;98947.88;;;7.59;67.54
64189;BME280;50493;50.970;10.082;2023-02-23T06:53:16;98953.53;;;7.84;69.62
64189;BME280;50493;50.970;10.082;2023-02-23T06:55:42;98946.97;;;8.11;65.55
64189;BME280;50493;50.970;10.082;2023-02-23T06:58:07;98950.56;;;8.04;65.43
64189;BME280;50493;50.970;10.082;2023-02-23T07:00:33;98951.50;;;8.00;65.73
64189;BME280;50493;50.970;10.082;2023-02-23T07:02:58;98958.56;;;7.93;66.08
64189;BME280;50493;50.970;10.082;2023-02-23T07:05:24;98960.44;;;7.84;66.59
64189;BME280;50493;50.970;10.082;2023-02-23T07:07:50;98952.72;;;7.81;66.41
64189;BME280;50493;50.970;10.082;2023-02-23T07:10:17;98951.09;;;7.73;66.96
64189;BME280;50493;50.970;10.082;2023-02-23T07:12:42;98955.22;;;7.87;66.39
64189;BME280;50493;50.970;10.082;2023-02-23T07:15:08;98952.38;;;7.99;65.97
64189;BME280;50493;50.970;10.082;2023-02-23T07:17:34;98959.09;;;8.12;64.48
64189;BME280;50493;50.970;10.082;2023-02-23T07:20:00;98965.66;;;7.85;65.50
64189;BME280;50493;50.970;10.082;2023-02-23T07:22:25;98959.50;;;7.88;66.43
64189;BME280;50493;50.970;10.082;2023-02-23T07:24:55;98961.44;;;7.76;66.44
64189;BME280;50493;50.970;10.082;2023-02-23T07:27:21;98963.28;;;7.71;66.55
64189;BME280;50493;50.970;10.082;2023-02-23T07:29:46;98962.75;;;8.02;65.59
64189;BME280;50493;50.970;10.082;2023-02-23T07:32:12;98969.09;;;7.86;65.77
64189;BME280;50493;50.970;10.082;2023-02-23T07:34:37;98967.22;;;7.94;65.92
64189;BME280;50493;50.970;10.082;2023-02-23T07:37:03;98964.53;;;8.00;65.59
64189;BME280;50493;50.970;10.082;2023-02-23T07:39:28;98958.94;;;8.22;65.27
64189;BME280;50493;50.970;10.082;2023-02-23T07:41:56;98962.72;;;8.04;65.15
64189;BME280;50493;50.970;10.082;2023-02-23T07:44:22;98967.94;;;8.02;65.43
64189;BME280;50493;50.970;10.082;2023-02-23T07:46:47;98972.00;;;8.17;65.27
64189;BME280;50493;50.970;10.082;2023-02-23T07:49:13;98965.78;;;8.26;64.30
64189;BME280;50493;50.970;10.082;2023-02-23T07:51:39;98975.91;;;8.41;63.73
64189;BME280;50493;50.970;10.082;2023-02-23T07:54:05;98965.97;;;8.60;63.62
64189;BME280;50493;50.970;10.082;2023-02-23T07:56:31;98971.06;;;8.67;63.38
64189;BME280;50493;50.970;10.082;2023-02-23T07:58:58;98964.53;;;8.88;63.00
64189;BME280;50493;50.970;10.082;2023-02-23T08:01:23;98964.41;;;8.94;62.36
64189;BME280;50493;50.970;10.082;2023-02-23T08:03:49;98969.91;;;8.82;63.06
64189;BME280;50493;50.970;10.082;2023-02-23T08:06:14;98971.72;;;8.76;63.47
64189;BME280;50493;50.970;10.082;2023-02-23T08:08:40;98971.72;;;8.76;62.60
64189;BME280;50493;50.970;10.082;2023-02-23T08:11:06;98971.63;;;8.83;62.21
64189;BME280;50493;50.970;10.082;2023-02-23T08:13:31;98971.22;;;9.01;61.65
64189;BME280;50493;50.970;10.082;2023-02-23T08:15:59;98971.38;;;8.93;61.56
64189;BME280;50493;50.970;10.082;2023-02-23T08:18:25;98972.72;;;9.13;62.80
64189;BME280;50493;50.970;10.082;2023-02-23T08:20:56;98971.38;;;8.95;63.42
64189;BME280;50493;50.970;10.082;2023-02-23T08:23:22;98981.97;;;8.42;65.82
64189;BME280;50493;50.970;10.082;2023-02-23T08:25:47;98973.44;;;8.77;67.80
64189;BME280;50493;50.970;10.082;2023-02-23T08:28:12;98969.22;;;9.14;63.93
64189;BME280;50493;50.970;10.082;2023-02-23T08:30:39;98977.16;;;9.08;62.25
64189;BME280;50493;50.970;10.082;2023-02-23T08:33:06;98973.28;;;9.27;61.70
64189;BME280;50493;50.970;10.082;2023-02-23T08:35:32;98973.69;;;9.46;63.01
64189;BME280;50493;50.970;10.082;2023-02-23T08:37:58;98975.47;;;9.44;60.19
64189;BME280;50493;50.970;10.082;2023-02-23T08:40:23;98978.75;;;9.54;60.81
64189;BME280;50493;50.970;10.082;2023-02-23T08:42:48;98971.59;;;9.61;61.42
64189;BME280;50493;50.970;10.082;2023-02-23T08:45:16;98978.69;;;9.56;62.85
64189;BME280;50493;50.970;10.082;2023-02-23T08:47:42;98976.75;;;9.64;63.25
64189;BME280;50493;50.970;10.082;2023-02-23T08:50:10;98976.97;;;9.89;63.27
64189;BME280;50493;50.970;10.082;2023-02-23T08:52:36;98983.56;;;10.04;61.16
64189;BME280;50493;50.970;10.082;2023-02-23T08:55:02;98985.78;;;10.20;61.88
64189;BME280;50493;50.970;10.082;2023-02-23T08:57:27;98983.00;;;10.26;63.44
64189;BME280;50493;50.970;10.082;2023-02-23T08:59:52;98986.88;;;10.12;64.14
64189;BME280;50493;50.970;10.082;2023-02-23T09:02:18;98985.69;;;10.23;63.87
64189;BME280;50493;50.970;10.082;2023-02-23T09:04:43;98986.03;;;10.43;60.19
64189;BME280;50493;50.970;10.082;2023-02-23T09:07:14;98989.50;;;10.45;62.27
64189;BME280;50493;50.970;10.082;2023-02-23T09:09:39;98990.47;;;10.41;60.61
64189;BME280;50493;50.970;10.082;2023-02-23T09:12:05;98985.88;;;10.50;59.46
64189;BME280;50493;50.970;10.082;2023-02-23T09:14:30;98985.16;;;10.44;61.98
64189;BME280;50493;50.970;10.082;2023-02-23T09:16:56;98988.03;;;10.34;62.03
64189;BME280;50493;50.970;10.082;2023-02-23T09:19:21;98992.47;;;10.30;60.24
64189;BME280;50493;50.970;10.082;2023-02-23T09:21:47;98992.41;;;10.33;60.48
64189;BME280;50493;50.970;10.082;2023-02-23T09:24:13;98988.75;;;10.40;58.48
64189;BME280;50493;50.970;10.082;2023-02-23T09:26:39;98983.69;;;10.32;58.73
64189;BME280;50493;50.970;10.082;2023-02-23T09:29:05;98990.59;;;10.35;59.64
64189;BME280;50493;50.970;10.082;2023-02-23T09:31:31;98999.09;;;10.43;59.42
64189;BME280;50493;50.970;10.082;2023-02-23T09:33:57;98995.13;;;10.28;58.47
64189;BME280;50493;50.970;10.082;2023-02-23T09:36:25;98997.84;;;9.91;58.69
64189;BME280;50493;50.970;10.082;2023-02-23T09:38:52;98994.69;;;10.12;59.88
64189;BME280;50493;50.970;10.082;2023-02-23T09:41:42;98995.78;;;10.38;59.41
64189;BME280;50493;50.970;10.082;2023-02-23T09:44:15;98990.78;;;9.94;61.10
64189;BME280;50493;50.970;10.082;2023-02-23T09:46:53;98995.59;;;10.44;61.72
64189;BME280;50493;50.970;10.082;2023-02-23T09:49:22;99000.47;;;10.57;59.78
64189;BME280;50493;50.970;10.082;2023-02-23T09:51:53;98996.03;;;10.60;60.91
64189;BME280;50493;50.970;10.082;2023-02-23T09:54:24;98998.78;;;10.56;60.42
64189;BME280;50493;50.970;10.082;2023-02-23T09:56:52;99002.91;;;10.30;57.86
64189;BME280;50493;50.970;10.082;2023-02-23T09:59:21;99004.78;;;10.26;58.46
64189;BME280;50493;50.970;10.082;2023-02-23T10:01:56;99003.84;;;10.29;60.00
64189;BME280;50493;50.970;10.082;2023-02-23T10:04:26;99000.03;;;10.42;60.18
64189;BME280;50493;50.970;10.082;2023-02-23T10:06:57;99000.91;;;10.41;60.35
64189;BME280;50493;50.970;10.082;2023-02-23T10:09:30;99007.53;;;10.20;60.80
64189;BME280;50493;50.970;10.082;2023-02-23T10:12:06;99007.44;;;10.58;61.22
64189;BME280;50493;50.970;10.082;2023-02-23T10:14:50;99003.94;;;10.59;59.13
64189;BME280;50493;50.970;10.082;2023-02-23T10:17:28;99000.47;;;10.57;59.59
64189;BME280;50493;50.970;10.082;2023-02-23T10:20:03;99004.06;;;10.86;58.51
64189;BME280;50493;50.970;10.082;2023-02-23T10:22:34;99002.91;;;11.24;56.71
64189;BME280;50493;50.970;10.082;2023-02-23T10:25:03;99004.06;;;11.72;56.82
64189;BME280;50493;50.970;10.082;2023-02-23T10:27:37;98997.66;;;11.24;57.63
64189;BME280;50493;50.970;10.082;2023-02-23T10:30:14;99003.38;;;11.37;55.38
64189;BME280;50493;50.970;10.082;2023-02-23T10:32:48;99002.34;;;11.71;59.33
64189;BME280;50493;50.970;10.082;2023-02-23T10:35:18;98997.78;;;12.03;58.00
64189;BME280;50493;50.970;10.082;2023-02-23T10:37:45;98998.81;;;11.72;56.71
64189;BME280;50493;50.970;10.082;2023-02-23T10:40:14;98984.97;;;11.95;55.81
64189;BME280;50493;50.970;10.082;2023-02-23T10:42:41;98996.00;;;11.22;59.64
64189;BME280;50493;50.970;10.082;2023-02-23T10:45:12;98990.16;;;11.97;57.21
64189;BME280;50493;50.970;10.082;2023-02-23T10:47:43;98988.81;;;12.10;56.86
64189;BME280;50493;50.970;10.082;2023-02-23T10:50:10;98992.03;;;12.19;57.80
64189;BME280;50493;50.970;10.082;2023-02-23T10:52:40;98999.16;;;11.88;58.72
64189;BME280;50493;50.970;10.082;2023-02-23T10:55:18;98995.75;;;11.01;60.44
64189;BME280;50493;50.970;10.082;2023-02-23T10:57:49;98994.25;;;11.51;61.14
64189;BME280;50493;50.970;10.082;2023-02-23T11:00:26;98993.25;;;12.59;58.16
64189;BME280;50493;50.970;10.082;2023-02-23T11:02:54;98995.97;;;12.05;58.44
64189;BME280;50493;50.970;10.082;2023-02-23T11:05:35;98992.91;;;11.37;63.34
64189;BME280;50493;50.970;10.082;2023-02-23T11:08:22;98997.19;;;10.81;64.24
64189;BME280;50493;50.970;10.082;2023-02-23T11:11:00;98987.94;;;11.85;58.97
64189;BME280;50493;50.970;10.082;2023-02-23T11:13:28;98988.00;;;12.08;59.07
64189;BME280;50493;50.970;10.082;2023-02-23T11:15:59;98985.78;;;12.48;58.75
64189;BME280;50493;50.970;10.082;2023-02-23T11:18:26;98982.19;;;12.51;56.55
64189;BME280;50493;50.970;10.082;2023-02-23T11:20:51;98973.34;;;13.00;55.58
64189;BME280;50493;50.970;10.082;2023-02-23T11:23:21;98972.72;;;12.70;56.28
64189;BME280;50493;50.970;10.082;2023-02-23T11:25:49;98965.34;;;13.49;54.58
64189;BME280;50493;50.970;10.082;2023-02-23T11:28:16;98957.81;;;13.62;53.16
64189;BME280;50493;50.970;10.082;2023-02-23T11:30:47;98961.13;;;13.45;52.66
64189;BME280;50493;50.970;10.082;2023-02-23T11:33:16;98971.03;;;12.93;55.42
64189;BME280;50493;50.970;10.082;2023-02-23T11:35:42;98967.53;;;12.92;55.62
64189;BME280;50493;50.970;10.082;2023-02-23T11:38:14;98963.53;;;12.58;56.46
64189;BME280;50493;50.970;10.082;2023-02-23T11:40:40;98963.00;;;12.97;54.87
64189;BME280;50493;50.970;10.082;2023-02-23T11:43:07;98959.94;;;13.08;54.95
64189;BME280;50493;50.970;10.082;2023-02-23T11:45:37;98960.50;;;12.69;56.31
64189;BME280;50493;50.970;10.082;2023-02-23T11:48:05;98952.75;;;12.91;55.59
64189;BME280;50493;50.970;10.082;2023-02-23T11:50:34;98954.16;;;12.76;56.71
64189;BME280;50493;50.970;10.082;2023-02-23T11:53:02;98951.72;;;12.46;57.31
64189;BME280;50493;50.970;10.082;2023-02-23T11:55:30;98952.69;;;12.93;56.47
64189;BME280;50493;50.970;10.082;2023-02-23T11:58:08;98940.59;;;13.11;55.36
64189;BME280;50493;50.970;10.082;2023-02-23T12:00:34;98947.56;;;13.12;54.90
64189;BME280;50493;50.970;10.082;2023-02-23T12:03:01;98938.41;;;13.22;55.58
64189;BME280;50493;50.970;10.082;2023-02-23T12:05:30;98933.53;;;13.13;54.91
64189;BME280;50493;50.970;10.082;2023-02-23T12:08:00;98937.34;;;13.28;54.68
64189;BME280;50493;50.970;10.082;2023-02-23T12:10:29;98935.91;;;13.41;54.84
64189;BME280;50493;50.970;10.082;2023-02-23T12:13:02;98939.63;;;13.13;55.55
64189;BME280;50493;50.970;10.082;2023-02-23T12:15:40;98932.09;;;13.28;55.01
64189;BME280;50493;50.970;10.082;2023-02-23T12:18:15;98939.56;;;13.37;54.69
64189;BME280;50493;50.970;10.082;2023-02-23T12:20:45;98930.22;;;13.30;55.10
64189;BME280;50493;50.970;10.082;2023-02-23T12:23:17;98929.50;;;13.26;54.75
64189;BME280;50493;50.970;10.082;2023-02-23T12:25:47;98931.22;;;12.58;57.30
64189;BME280;50493;50.970;10.082;2023-02-23T12:28:18;98931.56;;;12.72;56.67
64189;BME280;50493;50.970;10.082;2023-02-23T12:30:47;98926.81;;;12.58;55.28
64189;BME280;50493;50.970;10.082;2023-02-23T12:33:17;98938.25;;;11.83;60.58
64189;BME280;50493;50.970;10.082;2023-02-23T12:35:50;98932.63;;;11.40;62.13
64189;BME280;50493;50.970;10.082;2023-02-23T12:38:23;98934.88;;;10.96;64.34
64189;BME280;50493;50.970;10.082;2023-02-23T12:40:55;98930.47;;;11.53;60.37
64189;BME280;50493;50.970;10.082;2023-02-23T12:43:28;98938.31;;;11.80;59.00
64189;BME280;50493;50.970;10.082;2023-02-23T12:45:58;98942.56;;;10.72;65.97
64189;BME280;50493;50.970;10.082;2023-02-23T12:48:30;98939.47;;;10.58;66.72
64189;BME280;50493;50.970;10.082;2023-02-23T12:51:03;98934.72;;;11.56;59.90
64189;BME280;50493;50.970;10.082;2023-02-23T12:53:36;98930.91;;;11.93;59.02
64189;BME280;50493;50.970;10.082;2023-02-23T12:56:16;98936.84;;;11.98;58.78
64189;BME280;50493;50.970;10.082;2023-02-23T12:58:49;98937.16;;;11.89;60.79
64189;BME280;50493;50.970;10.082;2023-02-23T13:01:26;98933.03;;;11.55;59.92
64189;BME280;50493;50.970;10.082;2023-02-23T13:04:05;98933.81;;;12.10;59.62
64189;BME280;50493;50.970;10.082;2023-02-23T13:06:39;98930.09;;;12.41;57.73
64189;BME280;50493;50.970;10.082;2023-02-23T13:09:23;98932.09;;;11.57;63.48
64189;BME280;50493;50.970;10.082;2023-02-23T13:12:03;98928.78;;;11.24;64.69
64189;BME280;50493;50.970;10.082;2023-02-23T13:14:36;98924.75;;;11.69;60.59
64189;BME280;50493;50.970;10.082;2023-02-23T13:17:16;98920.44;;;12.42;56.27